Time;durP1;ratioP1;P1;durP2;ratioP2;P2;SDS_P1;SDS_P2;PMS_P1;PMS_P2;Temp;Humidity;BMP_temperature;BMP_pressure;BME280_temperature;BME280_humidity;BME280_pressure;Samples;Min_cycle;Max_cycle;Signal;HPM_P1;HPM_P2
2021/04/02 00:00:55;;;;;;;33.10;19.00;;;14.50;62.90;;;14.23;46.03;94760.16;4978608;28;20694;-80
2021/04/02 00:03:29;;;;;;;34.05;19.05;;;14.50;62.80;;;14.23;45.97;94754.88;5009046;28;20236;-78
2021/04/02 00:05:56;;;;;;;36.90;20.10;;;14.50;62.60;;;14.23;45.89;94757.53;4976912;28;20259;-79
2021/04/02 00:08:24;;;;;;;36.70;21.35;;;14.50;62.60;;;14.21;46.13;94760.38;4991940;28;20193;-80
2021/04/02 00:10:53;;;;;;;36.38;21.58;;;14.50;62.80;;;14.21;46.17;94759.59;4991948;28;20205;-79
2021/04/02 00:13:23;;;;;;;36.35;21.77;;;14.50;62.80;;;14.18;46.08;94755.53;5002255;28;20209;-80
2021/04/02 00:15:54;;;;;;;39.58;22.13;;;14.50;62.80;;;14.18;45.90;94754.75;5000652;28;20256;-80
2021/04/02 00:18:23;;;;;;;37.92;22.83;;;14.60;62.90;;;14.15;46.17;94757.81;4975889;28;20232;-79
2021/04/02 00:20:51;;;;;;;34.28;21.65;;;14.50;63.00;;;14.10;46.30;94750.56;5012278;28;20553;-79
2021/04/02 00:23:19;;;;;;;35.08;20.85;;;14.40;62.90;;;14.07;46.17;94753.63;5012089;28;20232;-80
2021/04/02 00:25:46;;;;;;;35.03;21.10;;;14.40;62.90;;;14.02;46.87;94746.34;5011160;28;20201;-79
2021/04/02 00:28:13;;;;;;;33.90;19.48;;;14.40;63.10;;;14.03;46.15;94752.44;5011057;28;20224;-80
2021/04/02 00:30:49;;;;;;;32.25;19.85;;;14.40;62.80;;;13.99;46.25;94752.06;5027072;28;20200;-79
2021/04/02 00:33:23;;;;;;;28.52;17.00;;;14.30;63.00;;;13.95;45.91;94758.78;5011022;28;20685;-80
2021/04/02 00:35:50;;;;;;;25.30;15.70;;;14.30;62.80;;;13.91;46.83;94770.81;4994345;28;20228;-79
2021/04/02 00:38:17;;;;;;;25.08;14.48;;;14.30;63.10;;;13.86;47.23;94766.16;5009641;28;20205;-80
2021/04/02 00:41:07;;;;;;;22.45;13.43;;;14.30;63.40;;;13.77;47.13;94757.72;4978730;28;20673;-79
2021/04/02 00:43:41;;;;;;;25.55;14.45;;;14.20;63.40;;;13.71;47.65;94763.06;5007964;28;20229;-79
2021/04/02 00:46:10;;;;;;;19.83;12.40;;;14.30;63.90;;;13.66;47.59;94755.81;5008808;28;20207;-78
2021/04/02 00:48:41;;;;;;;23.17;13.88;;;14.10;63.60;;;13.59;48.10;94753.19;4993468;28;20205;-78
2021/04/02 00:51:22;;;;;;;21.40;14.25;;;14.20;64.10;;;13.53;47.98;94751.44;5008955;28;20255;-78
2021/04/02 00:53:49;;;;;;;21.30;14.23;;;14.00;63.90;;;13.48;47.65;94753.91;4994245;28;20577;-78
2021/04/02 00:56:18;;;;;;;22.20;14.13;;;13.90;63.70;;;13.42;48.00;94750.28;5010618;28;20713;-78
2021/04/02 00:58:45;;;;;;;26.42;15.88;;;13.90;63.90;;;13.36;48.74;94756.38;4994076;28;20658;-80
2021/04/02 01:01:14;;;;;;;23.48;15.82;;;13.90;64.30;;;13.31;48.30;94755.41;4993258;28;20596;-79
2021/04/02 01:03:43;;;;;;;24.13;15.30;;;13.90;64.30;;;13.27;48.41;94755.03;5010621;28;20722;-79
2021/04/02 01:06:22;;;;;;;26.70;16.10;;;13.80;64.30;;;13.21;48.64;94759.31;5010533;28;20464;-78
2021/04/02 01:08:50;;;;;;;23.67;16.27;;;13.70;64.40;;;13.15;48.70;94751.47;4994051;28;20287;-80
2021/04/02 01:11:21;;;;;;;28.88;18.15;;;13.60;64.40;;;13.15;48.88;94756.72;5010222;28;20570;-80
2021/04/02 01:13:54;;;;;;;28.30;17.98;;;13.60;64.60;;;13.12;49.18;94763.19;5010030;28;20191;-79
2021/04/02 01:16:30;;;;;;;34.38;20.58;;;13.50;65.70;;;13.12;49.30;94765.84;5010282;28;20674;-79
2021/04/02 01:19:27;;;;;;;30.15;18.83;;;13.50;65.10;;;13.12;48.96;94768.47;5010008;28;20255;-79
2021/04/02 01:22:05;;;;;;;30.20;18.38;;;13.50;65.00;;;13.13;49.25;94760.38;4995365;28;20227;-80
2021/04/02 01:25:16;;;;;;;30.52;19.45;;;13.50;65.10;;;13.13;49.36;94759.56;5011752;28;20207;-79
2021/04/02 01:28:39;;;;;;;35.45;21.90;;;13.50;65.00;;;13.13;50.02;94763.00;5010897;28;20228;-79
2021/04/02 01:31:07;;;;;;;42.65;24.73;;;13.50;65.20;;;13.11;50.06;94757.13;4983058;28;20287;-79
2021/04/02 01:33:35;;;;;;;42.08;26.52;;;13.50;65.50;;;13.17;49.93;94758.13;4991744;28;20628;-79
2021/04/02 01:36:03;;;;;;;39.47;25.77;;;13.50;65.60;;;13.19;49.84;94750.81;4975781;28;20264;-79
2021/04/02 01:38:34;;;;;;;35.72;23.38;;;13.50;65.60;;;13.22;49.34;94749.56;4974926;28;20200;-80
2021/04/02 01:41:06;;;;;;;37.92;23.08;;;13.50;65.60;;;13.22;49.40;94754.84;4992668;28;20221;-79
2021/04/02 01:43:43;;;;;;;41.95;24.38;;;13.50;65.50;;;13.24;49.12;94758.06;5011229;28;20262;-80
2021/04/02 01:46:13;;;;;;;46.97;26.05;;;13.50;65.60;;;13.24;49.80;94760.72;5011232;28;20239;-80
2021/04/02 01:48:45;;;;;;;48.22;27.77;;;13.50;65.80;;;13.21;49.98;94763.78;4998608;28;20310;-79
2021/04/02 01:51:14;;;;;;;45.78;27.40;;;13.60;65.90;;;13.23;49.54;94769.63;5017564;28;20219;-79
2021/04/02 01:53:47;;;;;;;46.35;29.05;;;13.60;65.90;;;13.25;49.49;94770.22;5034741;28;20222;-79
2021/04/02 01:56:23;;;;;;;47.60;28.83;;;13.50;65.80;;;13.25;49.42;94764.97;5036009;28;20264;-79
2021/04/02 01:58:52;;;;;;;57.97;32.90;;;13.50;65.50;;;13.25;49.46;94770.22;5009200;28;20193;-80
2021/04/02 02:01:29;;;;;;;53.53;32.83;;;13.50;65.60;;;13.25;49.40;94760.50;5026799;28;20721;-79
2021/04/02 02:03:58;;;;;;;53.63;30.77;;;13.50;65.70;;;13.28;49.12;94767.16;5011274;28;20205;-79
2021/04/02 02:06:29;;;;;;;58.88;34.20;;;13.60;65.60;;;13.27;49.38;94771.63;4995962;28;20225;-79
2021/04/02 02:09:13;;;;;;;58.88;34.38;;;13.60;65.60;;;13.27;49.30;94768.22;5000583;28;20197;-79
2021/04/02 02:11:44;;;;;;;60.13;35.47;;;13.50;65.50;;;13.26;49.46;94769.22;4999030;28;20295;-80
2021/04/02 02:14:16;;;;;;;57.40;33.22;;;13.60;65.70;;;13.25;49.03;94775.50;5014559;28;20260;-79
2021/04/02 02:16:55;;;;;;;58.17;32.80;;;13.60;65.70;;;13.24;49.05;94771.25;5025601;28;20234;-79
2021/04/02 02:19:26;;;;;;;54.05;30.15;;;13.60;65.60;;;13.21;48.54;94764.59;5034035;28;20298;-79
2021/04/02 02:21:57;;;;;;;48.33;29.02;;;13.50;65.30;;;13.21;48.58;94766.41;5013389;28;20707;-79
2021/04/02 02:24:32;;;;;;;48.72;28.02;;;13.50;65.30;;;13.17;48.28;94765.22;4988652;28;20209;-79
2021/04/02 02:26:59;;;;;;;49.80;27.85;;;13.50;65.00;;;13.09;48.63;94763.63;5009107;28;20216;-79
2021/04/02 02:29:27;;;;;;;47.25;28.25;;;13.50;65.10;;;13.09;48.68;94767.06;4995988;28;20235;-79
2021/04/02 02:31:54;;;;;;;44.22;26.48;;;13.50;65.30;;;13.07;48.70;94766.50;5015711;28;20575;-80
2021/04/02 02:34:30;;;;;;;42.70;25.75;;;13.40;65.20;;;13.00;49.08;94754.34;5015095;28;20228;-78
2021/04/02 02:37:00;;;;;;;49.33;27.55;;;13.40;65.30;;;12.98;49.61;94762.47;4996009;28;20223;-79
2021/04/02 02:39:32;;;;;;;48.33;28.92;;;13.40;65.70;;;12.94;49.64;94756.03;5012404;28;20522;-79
2021/04/02 02:42:04;;;;;;;52.63;31.90;;;13.40;65.70;;;12.88;50.31;94762.94;4996130;28;20267;-80
2021/04/02 02:44:31;;;;;;;50.08;30.25;;;13.30;66.10;;;12.87;49.96;94763.16;5011924;28;20259;-80
2021/04/02 02:47:05;;;;;;;43.33;26.40;;;13.30;65.90;;;12.84;49.39;94758.28;5029486;28;20208;-79
2021/04/02 02:49:33;;;;;;;40.22;24.10;;;13.20;66.00;;;12.81;49.67;94762.94;4999501;28;20687;-79
2021/04/02 02:52:00;;;;;;;48.10;28.00;;;13.20;65.80;;;12.79;50.23;94759.72;4992095;28;20217;-79
2021/04/02 02:54:35;;;;;;;53.30;31.42;;;13.20;66.10;;;12.78;50.63;94759.94;5015416;28;20220;-78
2021/04/02 02:57:04;;;;;;;54.30;33.63;;;13.20;66.50;;;12.76;50.85;94754.88;5010131;28;20703;-79
2021/04/02 02:59:33;;;;;;;57.63;34.45;;;13.20;66.50;;;12.71;51.39;94762.59;5007192;28;20194;-79
2021/04/02 03:02:06;;;;;;;61.08;35.95;;;13.10;66.60;;;12.67;51.04;94750.88;4992926;28;20237;-78
2021/04/02 03:04:35;;;;;;;70.32;41.50;;;13.10;66.50;;;12.60;51.52;94750.09;4997437;28;20188;-79
2021/04/02 03:07:06;;;;;;;75.85;42.45;;;13.10;67.00;;;12.54;52.27;94758.81;5014337;28;20223;-79
2021/04/02 03:09:37;;;;;;;76.10;42.60;;;13.00;67.20;;;12.46;52.08;94749.31;5031724;28;20228;-79
2021/04/02 03:12:05;;;;;;;78.45;44.47;;;13.00;67.10;;;12.42;51.90;94748.94;5031875;28;20247;-79
2021/04/02 03:14:35;;;;;;;89.60;49.53;;;12.90;67.20;;;12.32;53.70;94754.63;5032236;28;20222;-78
2021/04/02 03:17:07;;;;;;;90.95;48.47;;;12.80;67.70;;;12.25;53.81;94751.19;5017520;28;20247;-79
2021/04/02 03:19:40;;;;;;;88.88;50.60;;;12.80;67.90;;;12.19;54.27;94759.13;5032767;28;20303;-79
2021/04/02 03:22:15;;;;;;;79.32;45.85;;;12.70;68.20;;;12.12;53.45;94754.69;5016991;28;20620;-79
2021/04/02 03:25:00;;;;;;;78.45;42.55;;;12.70;68.10;;;12.04;53.05;94752.25;5003528;28;20797;-79
2021/04/02 03:27:39;;;;;;;75.35;42.08;;;12.60;67.90;;;11.97;52.75;94762.78;5018154;28;20224;-79
2021/04/02 03:30:10;;;;;;;68.07;39.45;;;12.50;67.80;;;11.91;53.30;94763.56;5015304;28;20251;-79
2021/04/02 03:32:41;;;;;;;74.57;42.45;;;12.50;67.90;;;11.88;54.44;94766.59;5032970;28;20674;-79
2021/04/02 03:35:12;;;;;;;69.70;40.42;;;12.50;68.60;;;11.87;53.95;94758.94;5017001;28;20235;-79
2021/04/02 03:37:44;;;;;;;65.38;38.33;;;12.40;68.50;;;11.81;54.40;94765.78;5016416;28;20265;-79
2021/04/02 03:40:17;;;;;;;56.83;33.00;;;12.30;68.80;;;11.78;54.71;94764.38;5030449;28;20224;-79
2021/04/02 03:42:50;;;;;;;50.45;30.77;;;12.30;68.40;;;11.74;54.45;94760.53;5000428;28;20232;-79
2021/04/02 03:45:18;;;;;;;46.67;27.33;;;12.20;68.70;;;11.63;54.72;94761.13;5018678;28;20656;-79
2021/04/02 03:47:48;;;;;;;39.00;24.23;;;12.20;68.80;;;11.56;54.50;94765.59;5009055;28;20241;-79
2021/04/02 03:50:18;;;;;;;35.25;23.38;;;12.10;68.70;;;11.49;54.75;94773.47;4977309;28;20198;-79
2021/04/02 03:53:10;;;;;;;32.97;21.58;;;12.10;68.80;;;11.40;54.31;94772.88;4993680;28;20236;-79
2021/04/02 03:55:45;;;;;;;30.27;18.15;;;12.00;68.60;;;11.34;54.07;94790.22;4988480;28;20316;-79
2021/04/02 03:58:16;;;;;;;27.30;18.48;;;11.90;68.50;;;11.27;54.17;94775.47;5012780;28;20208;-79
2021/04/02 04:01:06;;;;;;;29.92;17.98;;;11.80;68.60;;;11.21;53.85;94790.97;5012313;28;20303;-79
2021/04/02 04:03:36;;;;;;;23.55;16.05;;;11.80;68.40;;;11.17;53.66;94789.78;5012316;28;20212;-79
2021/04/02 04:06:07;;;;;;;24.58;16.40;;;11.70;68.10;;;11.09;54.16;94792.56;4996597;28;20205;-79
2021/04/02 04:08:37;;;;;;;22.88;14.95;;;11.70;68.10;;;11.03;53.44;94788.13;5012706;28;20271;-79
2021/04/02 04:11:10;;;;;;;22.58;14.43;;;11.70;68.00;;;10.98;53.28;94793.16;5011623;28;20645;-79
2021/04/02 04:13:41;;;;;;;22.55;14.38;;;11.50;67.80;;;10.92;53.65;94794.75;4996872;28;20635;-79
2021/04/02 04:16:13;;;;;;;21.85;14.18;;;11.50;67.80;;;10.87;53.36;94792.69;5002650;28;20682;-79
2021/04/02 04:18:43;;;;;;;18.17;12.93;;;11.50;68.00;;;10.86;53.82;94800.78;5031424;28;20275;-79
2021/04/02 04:21:11;;;;;;;19.88;13.40;;;11.40;68.10;;;10.83;53.71;94806.44;4997345;28;20262;-79
2021/04/02 04:23:49;;;;;;;16.27;11.55;;;11.30;68.00;;;10.81;53.37;94803.19;5047066;28;20610;-79
2021/04/02 04:26:18;;;;;;;19.17;12.25;;;11.30;67.90;;;10.79;53.41;94813.06;5032024;28;20212;-79
2021/04/02 04:28:51;;;;;;;17.73;11.32;;;11.30;68.00;;;10.77;53.05;94815.88;5031769;28;20195;-79
2021/04/02 04:31:23;;;;;;;15.00;11.23;;;11.30;67.90;;;10.75;53.22;94819.72;5032237;28;20220;-79
2021/04/02 04:33:56;;;;;;;14.02;10.52;;;11.30;67.80;;;10.73;52.92;94817.28;5015581;28;20287;-79
2021/04/02 04:36:24;;;;;;;16.02;10.75;;;11.30;68.00;;;10.72;52.78;94821.69;5031424;28;20868;-79
2021/04/02 04:38:54;;;;;;;14.85;10.77;;;11.20;67.70;;;10.71;53.00;94829.78;5012327;28;20274;-79
2021/04/02 04:41:24;;;;;;;16.92;10.85;;;11.20;67.70;;;10.70;52.73;94825.53;5018106;28;20216;-79
2021/04/02 04:43:55;;;;;;;14.68;10.07;;;11.10;68.50;;;10.69;52.70;94829.97;5012891;28;20662;-79
2021/04/02 04:46:22;;;;;;;15.13;9.95;;;11.10;67.70;;;10.67;52.55;94839.84;5013376;28;20278;-78
2021/04/02 04:48:48;;;;;;;13.55;9.65;;;11.20;67.70;;;10.67;52.85;94845.09;5013540;28;20193;-78
2021/04/02 04:51:18;;;;;;;14.18;9.68;;;11.10;67.60;;;10.67;52.71;94846.91;5029864;28;20216;-79
2021/04/02 04:53:49;;;;;;;15.18;10.00;;;11.10;67.70;;;10.64;52.82;94842.84;5029617;28;20295;-80
2021/04/02 04:56:19;;;;;;;13.32;9.45;;;11.10;67.80;;;10.62;52.46;94841.41;5013450;28;20240;-78
2021/04/02 04:58:51;;;;;;;12.85;9.65;;;11.10;67.80;;;10.60;52.61;94840.81;5014406;28;20221;-80
2021/04/02 05:01:20;;;;;;;14.15;10.02;;;11.00;67.70;;;10.57;53.05;94848.06;5031814;28;20589;-78
2021/04/02 05:03:47;;;;;;;14.60;9.70;;;11.10;67.80;;;10.59;52.50;94857.56;4974200;28;20288;-80
2021/04/02 05:06:15;;;;;;;14.95;9.70;;;11.10;67.80;;;10.57;52.36;94858.56;4974040;28;20272;-80
2021/04/02 05:08:47;;;;;;;15.15;10.13;;;11.00;67.70;;;10.55;52.80;94855.31;4958336;28;20204;-80
2021/04/02 05:11:19;;;;;;;13.43;9.77;;;11.00;67.80;;;10.55;52.87;94859.75;4974112;28;20233;-80
2021/04/02 05:13:48;;;;;;;16.60;11.23;;;11.00;67.80;;;10.51;52.81;94864.56;4973934;28;20194;-80
2021/04/02 05:16:16;;;;;;;16.00;11.23;;;11.00;67.80;;;10.46;53.16;94860.91;4973164;28;20307;-79
2021/04/02 05:18:46;;;;;;;19.75;11.82;;;10.90;68.70;;;10.40;53.00;94860.66;4990452;28;20551;-79
2021/04/02 05:21:13;;;;;;;18.52;11.48;;;10.90;67.90;;;10.38;53.42;94867.09;4991091;28;20241;-80
2021/04/02 05:23:40;;;;;;;17.48;11.80;;;10.90;67.90;;;10.37;52.97;94873.34;4973875;28;20210;-80
2021/04/02 05:26:13;;;;;;;18.30;11.98;;;10.80;67.90;;;10.34;53.17;94869.28;4959136;28;20656;-79
2021/04/02 05:28:41;;;;;;;19.17;11.73;;;10.80;68.00;;;10.34;53.26;94871.91;4975912;28;20659;-80
2021/04/02 05:31:09;;;;;;;20.88;12.10;;;10.90;68.00;;;10.36;53.03;94880.41;4975596;28;20256;-80
2021/04/02 05:33:36;;;;;;;17.33;11.55;;;10.80;67.90;;;10.36;53.29;94879.56;4975685;28;20190;-80
2021/04/02 05:36:04;;;;;;;17.55;11.90;;;10.80;67.90;;;10.36;53.01;94871.69;4975845;28;20304;-80
2021/04/02 05:38:31;;;;;;;17.55;12.07;;;10.80;67.80;;;10.40;52.73;94875.59;4959712;28;20206;-80
2021/04/02 05:41:13;;;;;;;19.48;12.55;;;10.80;67.90;;;10.39;52.59;94882.63;4975711;28;20574;-79
2021/04/02 05:44:05;;;;;;;18.80;12.45;;;10.80;67.90;;;10.39;52.92;94885.25;4992578;28;20268;-79
2021/04/02 05:46:33;;;;;;;19.27;13.13;;;10.80;68.10;;;10.39;53.37;94885.25;4995459;28;20295;-80
2021/04/02 05:49:04;;;;;;;18.67;11.77;;;10.80;67.90;;;10.43;52.49;94882.28;4974754;28;20289;-80
2021/04/02 05:51:32;;;;;;;18.52;11.52;;;10.80;67.80;;;10.46;52.51;94887.13;4974818;28;20288;-81
2021/04/02 05:54:02;;;;;;;21.42;12.55;;;10.80;67.80;;;10.50;52.58;94889.16;4959164;28;20205;-80
2021/04/02 05:56:28;;;;;;;19.40;12.38;;;10.80;67.80;;;10.53;52.54;94887.97;5007660;28;20253;-80
2021/04/02 05:58:55;;;;;;;21.45;13.07;;;10.80;67.80;;;10.53;52.52;94890.59;4991488;28;20193;-81
2021/04/02 06:01:22;;;;;;;21.05;13.23;;;10.90;67.90;;;10.57;52.49;94892.66;4991611;28;20210;-79
2021/04/02 06:03:49;;;;;;;23.00;14.10;;;10.90;67.80;;;10.56;52.74;94898.91;4991304;28;20249;-80
2021/04/02 06:06:15;;;;;;;20.45;13.10;;;10.90;67.90;;;10.55;52.26;94889.41;4991746;28;20210;-80
2021/04/02 06:08:47;;;;;;;20.08;12.70;;;11.00;67.90;;;10.58;52.50;94896.06;5007517;28;20253;-80
2021/04/02 06:11:15;;;;;;;19.95;12.52;;;10.90;68.00;;;10.61;52.16;94908.00;4958527;28;20220;-80
2021/04/02 06:13:42;;;;;;;21.85;13.70;;;11.00;67.80;;;10.65;52.30;94917.13;4974575;28;20240;-80
2021/04/02 06:16:09;;;;;;;20.00;12.43;;;10.90;67.80;;;10.67;52.35;94913.28;4990976;28;20284;-78
2021/04/02 06:18:40;;;;;;;17.77;11.13;;;11.00;67.80;;;10.68;52.07;94903.59;4966009;28;20217;-77
2021/04/02 06:21:08;;;;;;;16.88;11.43;;;11.00;67.80;;;10.75;51.87;94914.16;4991834;28;20722;-78
2021/04/02 06:23:37;;;;;;;19.40;12.13;;;11.00;67.70;;;10.77;51.81;94923.44;5007172;28;20205;-80
2021/04/02 06:26:10;;;;;;;17.05;11.23;;;11.10;67.60;;;10.77;51.56;94927.88;4991079;28;20648;-78
2021/04/02 06:28:42;;;;;;;17.42;11.73;;;11.10;67.60;;;10.78;51.95;94943.44;5007897;28;20188;-77
2021/04/02 06:31:18;;;;;;;16.05;10.68;;;11.10;67.60;;;10.78;51.72;94938.19;5009413;28;20185;-78
2021/04/02 06:33:53;;;;;;;17.00;11.15;;;11.00;67.40;;;10.80;51.69;94943.22;5008614;28;20643;-78
2021/04/02 06:36:24;;;;;;;19.92;12.63;;;11.20;67.50;;;10.75;51.68;94943.81;4997319;28;20232;-77
2021/04/02 06:39:00;;;;;;;17.92;12.52;;;11.10;67.50;;;10.71;51.77;94945.19;5024849;28;20189;-79
2021/04/02 06:41:30;;;;;;;20.27;12.43;;;11.10;67.40;;;10.68;51.98;94942.94;4996606;28;20815;-77
2021/04/02 06:44:03;;;;;;;18.58;12.65;;;11.10;67.30;;;10.69;51.53;94941.94;5012400;28;20204;-78
2021/04/02 06:46:33;;;;;;;21.63;13.43;;;11.10;67.40;;;10.66;51.73;94945.75;5012259;28;20213;-78
2021/04/02 06:49:21;;;;;;;20.92;13.30;;;11.10;67.30;;;10.62;51.77;94952.41;5012287;28;20276;-79
2021/04/02 06:51:51;;;;;;;17.92;12.70;;;11.10;67.20;;;10.63;51.78;94954.03;5012067;28;20213;-78
2021/04/02 06:54:24;;;;;;;20.35;12.73;;;11.10;68.40;;;10.65;51.77;94957.25;5012036;28;20373;-78
2021/04/02 06:56:58;;;;;;;15.93;11.13;;;11.00;67.30;;;10.70;51.64;94946.19;5013662;28;20888;-78
2021/04/02 06:59:26;;;;;;;19.70;12.70;;;11.00;68.20;;;10.74;51.85;94960.53;5012916;28;20264;-79
2021/04/02 07:01:55;;;;;;;23.80;13.73;;;11.00;67.30;;;10.75;51.84;94959.53;5005423;28;20739;-78
2021/04/02 07:04:24;;;;;;;19.58;13.23;;;11.10;67.50;;;10.77;51.99;94959.38;4983474;28;20210;-78
2021/04/02 07:06:52;;;;;;;20.70;13.75;;;11.10;67.40;;;10.77;51.59;94964.63;4992012;28;20222;-79
2021/04/02 07:09:22;;;;;;;18.67;13.35;;;11.10;67.40;;;10.77;51.47;94964.63;4992749;28;20214;-79
2021/04/02 07:11:53;;;;;;;19.73;13.93;;;11.10;67.50;;;10.80;51.76;94964.22;5028925;28;20346;-78
2021/04/02 07:14:22;;;;;;;22.98;13.90;;;11.10;67.50;;;10.87;51.76;94963.25;5031700;28;20287;-79
2021/04/02 07:16:51;;;;;;;20.65;13.70;;;11.10;67.50;;;10.95;51.62;94956.22;5031269;28;20240;-80
2021/04/02 07:19:18;;;;;;;20.65;13.20;;;11.20;67.60;;;11.05;51.57;94970.63;5010049;28;20197;-79
2021/04/02 07:21:49;;;;;;;19.48;13.38;;;11.20;67.70;;;11.21;51.39;94966.88;4993898;28;20237;-79
2021/04/02 07:24:19;;;;;;;21.77;14.43;;;11.30;67.70;;;11.30;50.72;94964.94;4989889;28;20657;-80
2021/04/02 07:26:50;;;;;;;24.88;16.05;;;11.40;67.40;;;11.37;50.74;94968.38;4981725;28;20228;-80
2021/04/02 07:29:20;;;;;;;23.45;15.00;;;11.50;67.20;;;11.44;50.52;94971.03;5014006;28;20198;-80
2021/04/02 07:31:49;;;;;;;22.65;15.13;;;11.50;67.20;;;11.50;50.53;94972.88;4976611;28;20222;-80
2021/04/02 07:34:17;;;;;;;23.48;15.77;;;11.60;67.00;;;11.52;50.17;94973.50;5001834;28;20196;-79
2021/04/02 07:36:47;;;;;;;22.70;15.45;;;11.70;66.90;;;11.50;50.49;94974.72;5008178;28;20279;-80
2021/04/02 07:39:17;;;;;;;26.02;16.48;;;11.70;66.80;;;11.45;49.86;94972.66;5012674;28;20269;-81
2021/04/02 07:41:50;;;;;;;22.60;15.77;;;11.70;66.50;;;11.44;50.06;94975.50;5026486;28;20224;-79
2021/04/02 07:44:18;;;;;;;23.98;15.90;;;11.70;66.60;;;11.48;50.20;94976.72;5030299;28;20203;-80
2021/04/02 07:47:08;;;;;;;26.77;17.20;;;11.70;66.70;;;11.49;49.69;94980.97;5011492;28;20279;-79
2021/04/02 07:49:58;;;;;;;25.08;16.63;;;11.70;66.50;;;11.52;49.69;94981.38;5031892;28;20346;-79
2021/04/02 07:52:37;;;;;;;23.90;16.75;;;11.80;66.50;;;11.60;49.75;94977.75;5021035;28;20212;-78
2021/04/02 07:55:16;;;;;;;27.33;16.55;;;11.80;66.60;;;11.70;49.80;94972.13;5015610;28;20322;-79
2021/04/02 07:58:06;;;;;;;23.50;15.90;;;11.80;66.60;;;11.85;49.99;94979.88;5012773;28;21011;-78
2021/04/02 08:00:35;;;;;;;25.63;15.90;;;11.80;66.60;;;11.94;49.70;94970.81;4998141;28;20196;-79
2021/04/02 08:03:17;;;;;;;24.67;16.13;;;12.00;66.70;;;11.98;49.10;94974.66;5030789;28;20208;-79
2021/04/02 08:06:31;;;;;;;24.17;15.57;;;12.00;66.30;;;11.96;48.93;94966.19;5032210;28;20608;-79
2021/04/02 08:08:57;;;;;;;24.73;15.88;;;12.10;66.20;;;11.93;49.24;94974.44;5009384;28;20228;-78
2021/04/02 08:11:38;;;;;;;23.42;14.10;;;12.20;66.10;;;11.92;49.08;94975.44;5026482;28;20228;-79
2021/04/02 08:14:11;;;;;;;25.00;16.50;;;12.10;66.10;;;11.89;48.90;94980.28;4993760;28;20304;-79
2021/04/02 08:16:56;;;;;;;24.98;15.93;;;12.10;65.90;;;11.86;49.09;94976.22;4976885;28;20251;-78
2021/04/02 08:19:36;;;;;;;25.10;15.98;;;12.10;66.00;;;11.85;48.76;94969.34;5006130;28;20213;-78
2021/04/02 08:22:07;;;;;;;23.20;14.93;;;12.10;65.90;;;11.91;49.06;94970.38;5007766;28;20222;-79
2021/04/02 08:24:39;;;;;;;23.98;15.68;;;12.10;66.00;;;11.91;48.58;94962.50;4998593;28;20200;-78
2021/04/02 08:27:08;;;;;;;22.98;15.45;;;12.10;65.60;;;11.98;48.31;94960.72;5012244;28;20253;-78
2021/04/02 08:29:37;;;;;;;22.25;15.07;;;12.20;65.90;;;12.01;48.24;94958.50;5006579;28;20193;-79
2021/04/02 08:32:16;;;;;;;20.65;14.02;;;12.10;65.50;;;12.04;48.47;94959.13;4995582;28;20650;-78
2021/04/02 08:34:43;;;;;;;21.10;15.15;;;12.20;65.80;;;12.09;47.90;94954.88;4995524;28;20699;-79
2021/04/02 08:37:14;;;;;;;22.05;14.85;;;12.20;65.60;;;12.16;48.08;94953.06;5010033;28;20221;-78
2021/04/02 08:39:41;;;;;;;20.25;14.18;;;12.20;65.70;;;12.25;48.11;94951.06;5024742;28;20258;-79
2021/04/02 08:42:11;;;;;;;20.00;14.10;;;12.30;65.80;;;12.31;47.86;94950.25;5025609;28;20224;-77
2021/04/02 08:44:44;;;;;;;20.83;14.75;;;12.30;65.60;;;12.34;47.35;94951.69;4996934;28;20203;-78
2021/04/02 08:47:17;;;;;;;21.67;14.20;;;12.50;65.00;;;12.36;47.58;94946.22;5030141;28;20216;-79
2021/04/02 08:49:53;;;;;;;19.83;13.02;;;12.40;65.20;;;12.45;47.64;94947.63;4983353;28;20263;-79
2021/04/02 08:52:21;;;;;;;19.23;13.50;;;12.40;65.10;;;12.54;45.74;94951.69;4992181;28;20713;-79
2021/04/02 08:54:54;;;;;;;18.38;12.38;;;12.50;64.50;;;12.69;46.76;94956.72;4975025;28;20305;-79
2021/04/02 08:57:31;;;;;;;17.75;13.00;;;12.50;65.00;;;12.81;46.47;94955.09;5005283;28;20213;-78
2021/04/02 09:00:00;;;;;;;19.55;13.52;;;12.60;64.60;;;12.86;46.39;94943.94;5008819;28;20667;-78
2021/04/02 09:02:30;;;;;;;19.13;13.50;;;12.70;64.80;;;12.92;45.93;94950.22;5007160;28;20283;-78
2021/04/02 09:04:59;;;;;;;18.55;13.02;;;12.80;64.40;;;12.94;45.49;94949.00;5007001;28;20189;-79
2021/04/02 09:07:26;;;;;;;17.55;12.88;;;12.90;64.30;;;13.01;46.04;94946.38;5006569;28;20229;-78
2021/04/02 09:09:54;;;;;;;18.95;12.93;;;12.90;64.30;;;13.16;45.54;94932.97;4977049;28;20232;-78
2021/04/02 09:12:21;;;;;;;18.50;12.90;;;13.00;64.40;;;13.29;45.27;94934.72;4996538;28;20630;-79
2021/04/02 09:14:51;;;;;;;19.65;12.70;;;13.10;64.20;;;13.41;45.68;94934.91;4982559;28;20237;-79
2021/04/02 09:17:27;;;;;;;17.48;11.40;;;13.20;64.40;;;13.54;45.25;94931.44;4996130;28;20225;-79
2021/04/02 09:19:55;;;;;;;18.33;12.27;;;13.30;63.90;;;13.63;44.75;94932.00;5000013;28;20217;-79
2021/04/02 09:22:23;;;;;;;17.23;12.15;;;13.40;63.90;;;13.65;43.75;94922.84;4992635;28;20664;-79
2021/04/02 09:24:50;;;;;;;19.50;13.27;;;13.50;63.20;;;13.58;43.63;94924.72;4974402;28;20209;-79
2021/04/02 09:27:23;;;;;;;17.98;12.30;;;13.50;62.60;;;13.47;43.17;94920.13;4991446;28;20210;-79
2021/04/02 09:30:01;;;;;;;16.38;11.90;;;13.50;62.50;;;13.44;44.02;94916.88;4974713;28;20570;-80
2021/04/02 09:32:32;;;;;;;17.85;11.55;;;13.60;62.80;;;13.52;43.77;94915.00;4976157;28;20209;-78
2021/04/02 09:35:02;;;;;;;17.55;12.65;;;13.60;62.60;;;13.58;42.83;94916.81;4975393;28;20205;-80
2021/04/02 09:37:29;;;;;;;17.05;12.63;;;13.60;62.30;;;13.69;43.26;94913.50;4975283;28;20571;-78
2021/04/02 09:40:06;;;;;;;17.48;11.68;;;13.60;62.30;;;13.86;43.67;94908.53;4991343;28;20204;-79
2021/04/02 09:42:36;;;;;;;16.75;11.55;;;13.70;62.60;;;14.05;43.44;94913.91;4986258;28;20225;-80
2021/04/02 09:45:11;;;;;;;20.63;11.43;;;13.80;62.90;;;14.16;42.43;94917.69;4995735;28;20192;-79
2021/04/02 09:47:48;;;;;;;17.40;12.60;;;13.90;62.00;;;14.15;41.73;94916.09;4995196;28;20230;-80
2021/04/02 09:50:17;;;;;;;17.20;12.02;;;14.00;61.60;;;14.06;41.77;94904.97;5012187;28;20200;-79
2021/04/02 09:52:45;;;;;;;18.52;12.20;;;14.00;61.10;;;14.02;41.34;94914.34;4997020;28;20623;-78
2021/04/02 09:55:16;;;;;;;17.92;12.70;;;14.00;61.10;;;13.99;41.63;94912.09;5006393;28;20728;-79
2021/04/02 09:57:47;;;;;;;17.02;11.55;;;14.00;61.10;;;14.00;42.31;94903.19;5028653;28;20239;-79
2021/04/02 10:00:15;;;;;;;17.98;12.02;;;13.90;61.30;;;14.04;40.75;94909.66;5012579;28;20623;-78
2021/04/02 10:02:43;;;;;;;17.05;10.80;;;14.00;60.90;;;14.13;41.82;94894.38;5007915;28;20228;-79
2021/04/02 10:05:11;;;;;;;15.60;11.45;;;14.00;61.40;;;14.33;41.82;94883.66;5018517;28;20190;-80
2021/04/02 10:07:38;;;;;;;14.60;10.95;;;14.10;61.60;;;14.52;42.18;94884.53;5002829;28;20221;-80
2021/04/02 10:10:06;;;;;;;15.23;10.95;;;14.10;61.80;;;14.60;41.64;94884.25;4975992;28;20205;-80
2021/04/02 10:12:33;;;;;;;15.20;11.13;;;14.30;61.60;;;14.60;41.42;94886.88;5014344;28;20637;-80
2021/04/02 10:15:03;;;;;;;16.17;11.63;;;14.40;61.20;;;14.61;41.49;94880.59;4996679;28;20675;-78
2021/04/02 10:17:30;;;;;;;15.35;10.98;;;14.40;61.20;;;14.62;41.42;94887.47;5000324;28;20228;-80
2021/04/02 10:19:57;;;;;;;14.00;10.55;;;14.50;61.10;;;14.57;40.98;94884.66;5013496;28;20508;-79
2021/04/02 10:22:24;;;;;;;19.35;11.80;;;14.50;60.50;;;14.40;39.99;94879.13;5034052;28;20797;-79
2021/04/02 10:24:51;;;;;;;15.77;10.15;;;14.50;59.30;;;14.27;40.39;94877.44;5016283;28;20197;-79